sensor_id;sensor_type;location;lat;lon;timestamp;temperature;humidity
1347;DHT22;667;48.796;9.480;2022-11-24T00:01:54;10.50;84.40
1347;DHT22;667;48.796;9.480;2022-11-24T00:04:20;10.50;84.50
1347;DHT22;667;48.796;9.480;2022-11-24T00:06:45;10.50;84.50
1347;DHT22;667;48.796;9.480;2022-11-24T00:09:13;10.50;84.40
1347;DHT22;667;48.796;9.480;2022-11-24T00:11:39;10.50;84.40
1347;DHT22;667;48.796;9.480;2022-11-24T00:14:05;10.50;84.40
1347;DHT22;667;48.796;9.480;2022-11-24T00:16:33;10.60;84.50
1347;DHT22;667;48.796;9.480;2022-11-24T00:19:00;10.60;84.50
1347;DHT22;667;48.796;9.480;2022-11-24T00:21:28;10.50;84.20
1347;DHT22;667;48.796;9.480;2022-11-24T00:23:55;10.50;84.30
1347;DHT22;667;48.796;9.480;2022-11-24T00:26:27;10.60;84.50
1347;DHT22;667;48.796;9.480;2022-11-24T00:28:55;10.50;84.50
1347;DHT22;667;48.796;9.480;2022-11-24T00:33:50;10.60;84.40
1347;DHT22;667;48.796;9.480;2022-11-24T00:36:16;10.50;84.30
1347;DHT22;667;48.796;9.480;2022-11-24T00:38:43;10.60;84.60
1347;DHT22;667;48.796;9.480;2022-11-24T00:41:09;10.50;84.60
1347;DHT22;667;48.796;9.480;2022-11-24T00:43:35;10.50;84.60
1347;DHT22;667;48.796;9.480;2022-11-24T00:46:01;10.50;84.70
1347;DHT22;667;48.796;9.480;2022-11-24T00:48:26;10.50;84.70
1347;DHT22;667;48.796;9.480;2022-11-24T00:51:00;10.50;84.80
1347;DHT22;667;48.796;9.480;2022-11-24T00:53:27;10.50;84.70
1347;DHT22;667;48.796;9.480;2022-11-24T00:55:53;10.50;84.60
1347;DHT22;667;48.796;9.480;2022-11-24T00:58:19;10.50;84.60
1347;DHT22;667;48.796;9.480;2022-11-24T01:00:44;10.60;85.40
1347;DHT22;667;48.796;9.480;2022-11-24T01:03:12;10.50;84.50
1347;DHT22;667;48.796;9.480;2022-11-24T01:05:38;10.50;84.50
1347;DHT22;667;48.796;9.480;2022-11-24T01:08:04;10.50;84.60
1347;DHT22;667;48.796;9.480;2022-11-24T01:10:30;10.60;84.60
1347;DHT22;667;48.796;9.480;2022-11-24T01:12:56;10.50;84.60
1347;DHT22;667;48.796;9.480;2022-11-24T01:15:21;10.50;84.60
1347;DHT22;667;48.796;9.480;2022-11-24T01:17:47;10.50;84.60
1347;DHT22;667;48.796;9.480;2022-11-24T01:20:13;10.50;84.60
1347;DHT22;667;48.796;9.480;2022-11-24T01:22:39;10.50;84.60
1347;DHT22;667;48.796;9.480;2022-11-24T01:25:07;10.50;84.60
1347;DHT22;667;48.796;9.480;2022-11-24T01:27:33;10.50;84.60
1347;DHT22;667;48.796;9.480;2022-11-24T01:29:59;10.50;84.50
1347;DHT22;667;48.796;9.480;2022-11-24T01:32:25;10.50;84.40
1347;DHT22;667;48.796;9.480;2022-11-24T01:34:50;10.50;84.20
1347;DHT22;667;48.796;9.480;2022-11-24T01:37:16;10.50;84.10
1347;DHT22;667;48.796;9.480;2022-11-24T01:39:41;10.50;84.10
1347;DHT22;667;48.796;9.480;2022-11-24T01:42:07;10.50;84.00
1347;DHT22;667;48.796;9.480;2022-11-24T01:44:33;10.50;83.90
1347;DHT22;667;48.796;9.480;2022-11-24T01:47:05;10.50;83.90
1347;DHT22;667;48.796;9.480;2022-11-24T01:49:37;10.50;83.90
1347;DHT22;667;48.796;9.480;2022-11-24T01:52:14;10.50;83.90
1347;DHT22;667;48.796;9.480;2022-11-24T01:54:47;10.50;83.80
1347;DHT22;667;48.796;9.480;2022-11-24T01:57:25;10.50;83.80
1347;DHT22;667;48.796;9.480;2022-11-24T01:59:55;10.50;83.70
1347;DHT22;667;48.796;9.480;2022-11-24T02:02:23;10.50;83.60
1347;DHT22;667;48.796;9.480;2022-11-24T02:04:50;10.50;83.50
1347;DHT22;667;48.796;9.480;2022-11-24T02:07:16;10.50;83.40
1347;DHT22;667;48.796;9.480;2022-11-24T02:09:48;10.50;83.40
1347;DHT22;667;48.796;9.480;2022-11-24T02:12:16;10.40;83.20
1347;DHT22;667;48.796;9.480;2022-11-24T02:14:42;10.40;83.20
1347;DHT22;667;48.796;9.480;2022-11-24T02:17:08;10.40;83.20
1347;DHT22;667;48.796;9.480;2022-11-24T02:27:44;10.30;83.50
1347;DHT22;667;48.796;9.480;2022-11-24T02:30:10;10.30;83.60
1347;DHT22;667;48.796;9.480;2022-11-24T02:32:38;10.30;83.70
1347;DHT22;667;48.796;9.480;2022-11-24T02:35:07;10.30;83.70
1347;DHT22;667;48.796;9.480;2022-11-24T02:37:33;10.30;83.70
1347;DHT22;667;48.796;9.480;2022-11-24T02:39:58;10.30;83.80
1347;DHT22;667;48.796;9.480;2022-11-24T02:42:25;10.30;83.80
1347;DHT22;667;48.796;9.480;2022-11-24T02:44:54;10.30;83.70
1347;DHT22;667;48.796;9.480;2022-11-24T02:47:21;10.40;83.80
1347;DHT22;667;48.796;9.480;2022-11-24T02:49:46;10.40;83.60
1347;DHT22;667;48.796;9.480;2022-11-24T02:52:12;10.40;83.50
1347;DHT22;667;48.796;9.480;2022-11-24T02:54:38;10.40;83.50
1347;DHT22;667;48.796;9.480;2022-11-24T02:57:03;10.40;83.50
1347;DHT22;667;48.796;9.480;2022-11-24T02:59:29;10.40;83.40
1347;DHT22;667;48.796;9.480;2022-11-24T03:01:54;10.40;83.30
1347;DHT22;667;48.796;9.480;2022-11-24T03:04:20;10.40;83.20
1347;DHT22;667;48.796;9.480;2022-11-24T03:06:46;10.40;83.30
1347;DHT22;667;48.796;9.480;2022-11-24T03:09:11;10.40;83.30
1347;DHT22;667;48.796;9.480;2022-11-24T03:11:37;10.40;83.30
1347;DHT22;667;48.796;9.480;2022-11-24T03:14:03;10.40;83.30
1347;DHT22;667;48.796;9.480;2022-11-24T03:16:29;10.40;83.30
1347;DHT22;667;48.796;9.480;2022-11-24T03:18:54;10.40;83.30
1347;DHT22;667;48.796;9.480;2022-11-24T03:21:20;10.30;83.20
1347;DHT22;667;48.796;9.480;2022-11-24T03:23:46;10.30;83.10
1347;DHT22;667;48.796;9.480;2022-11-24T03:26:16;10.30;83.10
1347;DHT22;667;48.796;9.480;2022-11-24T03:28:42;10.30;83.00
1347;DHT22;667;48.796;9.480;2022-11-24T03:31:08;10.30;82.90
1347;DHT22;667;48.796;9.480;2022-11-24T03:33:34;10.30;82.80
1347;DHT22;667;48.796;9.480;2022-11-24T03:36:00;10.20;83.40
1347;DHT22;667;48.796;9.480;2022-11-24T03:38:26;10.20;82.80
1347;DHT22;667;48.796;9.480;2022-11-24T03:40:52;10.20;82.90
1347;DHT22;667;48.796;9.480;2022-11-24T03:43:18;10.20;82.90
1347;DHT22;667;48.796;9.480;2022-11-24T03:45:48;10.20;83.00
1347;DHT22;667;48.796;9.480;2022-11-24T03:48:15;10.20;83.10
1347;DHT22;667;48.796;9.480;2022-11-24T03:50:41;10.20;83.30
1347;DHT22;667;48.796;9.480;2022-11-24T03:53:07;10.20;83.40
1347;DHT22;667;48.796;9.480;2022-11-24T03:55:33;10.10;83.30
1347;DHT22;667;48.796;9.480;2022-11-24T03:57:59;10.20;83.50
1347;DHT22;667;48.796;9.480;2022-11-24T04:00:24;10.20;83.40
1347;DHT22;667;48.796;9.480;2022-11-24T04:02:50;10.20;83.40
1347;DHT22;667;48.796;9.480;2022-11-24T04:05:16;10.20;83.40
1347;DHT22;667;48.796;9.480;2022-11-24T04:07:41;10.20;83.40
1347;DHT22;667;48.796;9.480;2022-11-24T04:10:07;10.20;83.40
1347;DHT22;667;48.796;9.480;2022-11-24T04:12:33;10.30;83.40
1347;DHT22;667;48.796;9.480;2022-11-24T04:15:13;10.30;83.40
1347;DHT22;667;48.796;9.480;2022-11-24T04:17:39;10.30;83.20
1347;DHT22;667;48.796;9.480;2022-11-24T04:20:05;10.30;83.10
1347;DHT22;667;48.796;9.480;2022-11-24T04:22:31;10.30;83.00
1347;DHT22;667;48.796;9.480;2022-11-24T04:24:57;10.40;83.00
1347;DHT22;667;48.796;9.480;2022-11-24T04:27:23;10.40;82.90
1347;DHT22;667;48.796;9.480;2022-11-24T04:29:48;10.40;82.90
1347;DHT22;667;48.796;9.480;2022-11-24T04:32:15;10.40;82.80
1347;DHT22;667;48.796;9.480;2022-11-24T04:34:42;10.40;83.30
1347;DHT22;667;48.796;9.480;2022-11-24T04:37:07;10.50;82.70
1347;DHT22;667;48.796;9.480;2022-11-24T04:39:33;10.50;82.60
1347;DHT22;667;48.796;9.480;2022-11-24T04:41:59;10.50;82.50
1347;DHT22;667;48.796;9.480;2022-11-24T04:44:24;10.50;82.40
1347;DHT22;667;48.796;9.480;2022-11-24T04:46:50;10.50;82.30
1347;DHT22;667;48.796;9.480;2022-11-24T04:49:16;10.50;82.10
1347;DHT22;667;48.796;9.480;2022-11-24T04:51:41;10.50;82.00
1347;DHT22;667;48.796;9.480;2022-11-24T04:54:10;10.50;81.80
1347;DHT22;667;48.796;9.480;2022-11-24T04:56:37;10.60;81.80
1347;DHT22;667;48.796;9.480;2022-11-24T04:59:03;10.60;81.70
1347;DHT22;667;48.796;9.480;2022-11-24T05:01:28;10.60;81.60
1347;DHT22;667;48.796;9.480;2022-11-24T05:03:57;10.60;81.50
1347;DHT22;667;48.796;9.480;2022-11-24T05:06:23;10.60;81.50
1347;DHT22;667;48.796;9.480;2022-11-24T05:08:50;10.60;81.40
1347;DHT22;667;48.796;9.480;2022-11-24T05:11:17;10.60;81.30
1347;DHT22;667;48.796;9.480;2022-11-24T05:13:43;10.60;81.40
1347;DHT22;667;48.796;9.480;2022-11-24T05:16:09;10.60;81.10
1347;DHT22;667;48.796;9.480;2022-11-24T05:18:35;10.60;81.00
1347;DHT22;667;48.796;9.480;2022-11-24T05:21:02;10.60;81.00
1347;DHT22;667;48.796;9.480;2022-11-24T05:23:28;10.60;81.00
1347;DHT22;667;48.796;9.480;2022-11-24T05:25:58;10.60;81.00
1347;DHT22;667;48.796;9.480;2022-11-24T05:28:27;10.60;81.00
1347;DHT22;667;48.796;9.480;2022-11-24T05:30:52;10.60;80.80
1347;DHT22;667;48.796;9.480;2022-11-24T05:33:18;10.60;80.70
1347;DHT22;667;48.796;9.480;2022-11-24T05:35:53;10.60;80.60
1347;DHT22;667;48.796;9.480;2022-11-24T05:38:19;10.60;80.70
1347;DHT22;667;48.796;9.480;2022-11-24T05:40:47;10.60;80.40
1347;DHT22;667;48.796;9.480;2022-11-24T05:43:14;10.60;80.30
1347;DHT22;667;48.796;9.480;2022-11-24T05:45:41;10.50;80.80
1347;DHT22;667;48.796;9.480;2022-11-24T05:48:09;10.50;80.00
1347;DHT22;667;48.796;9.480;2022-11-24T05:50:35;10.50;80.00
1347;DHT22;667;48.796;9.480;2022-11-24T05:53:05;10.50;79.90
1347;DHT22;667;48.796;9.480;2022-11-24T05:55:31;10.40;79.70
1347;DHT22;667;48.796;9.480;2022-11-24T05:57:59;10.40;79.70
1347;DHT22;667;48.796;9.480;2022-11-24T06:00:24;10.40;79.70
1347;DHT22;667;48.796;9.480;2022-11-24T06:02:50;10.40;79.70
1347;DHT22;667;48.796;9.480;2022-11-24T06:05:16;10.40;79.80
1347;DHT22;667;48.796;9.480;2022-11-24T06:07:42;10.50;80.30
1347;DHT22;667;48.796;9.480;2022-11-24T06:10:08;10.40;79.40
1347;DHT22;667;48.796;9.480;2022-11-24T06:12:34;10.40;79.40
1347;DHT22;667;48.796;9.480;2022-11-24T06:15:00;10.40;79.30
1347;DHT22;667;48.796;9.480;2022-11-24T06:17:26;10.40;79.20
1347;DHT22;667;48.796;9.480;2022-11-24T06:19:54;10.40;79.20
1347;DHT22;667;48.796;9.480;2022-11-24T06:22:20;10.40;79.10
1347;DHT22;667;48.796;9.480;2022-11-24T06:24:46;10.40;79.00
1347;DHT22;667;48.796;9.480;2022-11-24T06:27:12;10.40;79.10
1347;DHT22;667;48.796;9.480;2022-11-24T06:29:38;10.40;79.10
1347;DHT22;667;48.796;9.480;2022-11-24T06:32:04;10.40;79.00
1347;DHT22;667;48.796;9.480;2022-11-24T06:34:30;10.30;79.00
1347;DHT22;667;48.796;9.480;2022-11-24T06:36:56;10.30;79.00
1347;DHT22;667;48.796;9.480;2022-11-24T06:39:21;10.40;79.00
1347;DHT22;667;48.796;9.480;2022-11-24T06:41:49;10.30;79.00
1347;DHT22;667;48.796;9.480;2022-11-24T06:44:15;10.30;79.00
1347;DHT22;667;48.796;9.480;2022-11-24T06:46:40;10.30;78.90
1347;DHT22;667;48.796;9.480;2022-11-24T06:49:06;10.40;79.00
1347;DHT22;667;48.796;9.480;2022-11-24T06:51:31;10.40;79.10
1347;DHT22;667;48.796;9.480;2022-11-24T06:53:57;10.40;78.90
1347;DHT22;667;48.796;9.480;2022-11-24T06:56:22;10.40;78.80
1347;DHT22;667;48.796;9.480;2022-11-24T06:58:51;10.40;78.80
1347;DHT22;667;48.796;9.480;2022-11-24T07:01:27;10.40;78.90
1347;DHT22;667;48.796;9.480;2022-11-24T07:03:54;10.40;79.00
1347;DHT22;667;48.796;9.480;2022-11-24T07:06:21;10.40;78.90
1347;DHT22;667;48.796;9.480;2022-11-24T07:08:48;10.40;78.80
1347;DHT22;667;48.796;9.480;2022-11-24T07:11:19;10.40;78.60
1347;DHT22;667;48.796;9.480;2022-11-24T07:13:45;10.50;78.70
1347;DHT22;667;48.796;9.480;2022-11-24T07:16:23;10.50;78.60
1347;DHT22;667;48.796;9.480;2022-11-24T07:18:50;10.50;78.50
1347;DHT22;667;48.796;9.480;2022-11-24T07:21:16;10.50;78.40
1347;DHT22;667;48.796;9.480;2022-11-24T07:23:42;10.50;78.30
1347;DHT22;667;48.796;9.480;2022-11-24T07:26:09;10.50;78.10
1347;DHT22;667;48.796;9.480;2022-11-24T07:28:35;10.50;78.00
1347;DHT22;667;48.796;9.480;2022-11-24T07:31:09;10.50;78.00
1347;DHT22;667;48.796;9.480;2022-11-24T07:33:36;10.60;78.20
1347;DHT22;667;48.796;9.480;2022-11-24T07:36:03;10.60;78.40
1347;DHT22;667;48.796;9.480;2022-11-24T07:38:30;10.60;78.80
1347;DHT22;667;48.796;9.480;2022-11-24T07:41:04;10.60;79.10
1347;DHT22;667;48.796;9.480;2022-11-24T07:43:32;10.60;79.60
1347;DHT22;667;48.796;9.480;2022-11-24T07:45:58;10.60;80.10
1347;DHT22;667;48.796;9.480;2022-11-24T07:48:24;10.60;80.40
1347;DHT22;667;48.796;9.480;2022-11-24T07:50:49;10.60;80.70
1347;DHT22;667;48.796;9.480;2022-11-24T07:53:15;10.70;81.20
1347;DHT22;667;48.796;9.480;2022-11-24T07:55:41;10.70;81.60
1347;DHT22;667;48.796;9.480;2022-11-24T07:58:06;10.70;81.90
1347;DHT22;667;48.796;9.480;2022-11-24T08:00:32;10.70;82.20
1347;DHT22;667;48.796;9.480;2022-11-24T08:02:58;10.60;82.20
1347;DHT22;667;48.796;9.480;2022-11-24T08:05:23;10.60;82.20
1347;DHT22;667;48.796;9.480;2022-11-24T08:07:49;10.60;82.40
1347;DHT22;667;48.796;9.480;2022-11-24T08:10:15;10.60;82.60
1347;DHT22;667;48.796;9.480;2022-11-24T08:12:41;10.50;83.40
1347;DHT22;667;48.796;9.480;2022-11-24T08:15:07;10.50;82.80
1347;DHT22;667;48.796;9.480;2022-11-24T08:17:33;10.50;83.10
1347;DHT22;667;48.796;9.480;2022-11-24T08:19:58;10.50;83.40
1347;DHT22;667;48.796;9.480;2022-11-24T08:22:24;10.50;83.60
1347;DHT22;667;48.796;9.480;2022-11-24T08:24:50;10.50;83.80
1347;DHT22;667;48.796;9.480;2022-11-24T08:27:17;10.40;83.90
1347;DHT22;667;48.796;9.480;2022-11-24T08:29:42;10.40;84.00
1347;DHT22;667;48.796;9.480;2022-11-24T08:32:09;10.40;84.20
1347;DHT22;667;48.796;9.480;2022-11-24T08:34:34;10.40;84.30
1347;DHT22;667;48.796;9.480;2022-11-24T08:37:02;10.40;84.60
1347;DHT22;667;48.796;9.480;2022-11-24T08:39:28;10.40;84.90
1347;DHT22;667;48.796;9.480;2022-11-24T08:41:54;10.40;85.20
1347;DHT22;667;48.796;9.480;2022-11-24T08:44:19;10.40;85.40
1347;DHT22;667;48.796;9.480;2022-11-24T08:46:45;10.40;85.60
1347;DHT22;667;48.796;9.480;2022-11-24T08:49:11;10.40;85.70
1347;DHT22;667;48.796;9.480;2022-11-24T08:51:38;10.40;85.70
1347;DHT22;667;48.796;9.480;2022-11-24T08:54:04;10.40;86.60
1347;DHT22;667;48.796;9.480;2022-11-24T08:56:31;10.40;86.00
1347;DHT22;667;48.796;9.480;2022-11-24T08:58:57;10.40;86.10
1347;DHT22;667;48.796;9.480;2022-11-24T09:01:23;10.40;86.10
1347;DHT22;667;48.796;9.480;2022-11-24T09:03:49;10.50;86.30
1347;DHT22;667;48.796;9.480;2022-11-24T09:06:20;10.50;86.40
1347;DHT22;667;48.796;9.480;2022-11-24T09:08:49;10.50;86.50
1347;DHT22;667;48.796;9.480;2022-11-24T09:11:16;10.50;86.50
1347;DHT22;667;48.796;9.480;2022-11-24T09:13:42;10.50;86.50
1347;DHT22;667;48.796;9.480;2022-11-24T09:16:11;10.50;86.50
1347;DHT22;667;48.796;9.480;2022-11-24T09:18:37;10.50;86.50
1347;DHT22;667;48.796;9.480;2022-11-24T09:21:07;10.50;86.60
1347;DHT22;667;48.796;9.480;2022-11-24T09:23:33;10.50;86.60
1347;DHT22;667;48.796;9.480;2022-11-24T09:26:05;10.60;86.50
1347;DHT22;667;48.796;9.480;2022-11-24T09:28:32;10.60;86.50
1347;DHT22;667;48.796;9.480;2022-11-24T09:31:02;10.60;86.50
1347;DHT22;667;48.796;9.480;2022-11-24T09:33:28;10.60;86.50
1347;DHT22;667;48.796;9.480;2022-11-24T09:35:54;10.70;86.50
1347;DHT22;667;48.796;9.480;2022-11-24T09:38:20;10.70;87.20
1347;DHT22;667;48.796;9.480;2022-11-24T09:40:45;10.80;86.50
1347;DHT22;667;48.796;9.480;2022-11-24T09:45:54;10.90;86.00
1347;DHT22;667;48.796;9.480;2022-11-24T09:48:35;11.00;85.90
1347;DHT22;667;48.796;9.480;2022-11-24T09:51:03;11.00;85.90
1347;DHT22;667;48.796;9.480;2022-11-24T09:53:55;11.00;85.80
1347;DHT22;667;48.796;9.480;2022-11-24T09:56:26;11.00;85.60
1347;DHT22;667;48.796;9.480;2022-11-24T10:01:33;10.90;85.40
1347;DHT22;667;48.796;9.480;2022-11-24T10:04:00;10.90;85.50
1347;DHT22;667;48.796;9.480;2022-11-24T10:14:57;11.00;85.80
1347;DHT22;667;48.796;9.480;2022-11-24T10:27:47;11.00;85.50
1347;DHT22;667;48.796;9.480;2022-11-24T10:32:45;11.00;85.60
1347;DHT22;667;48.796;9.480;2022-11-24T10:35:20;11.00;85.80
1347;DHT22;667;48.796;9.480;2022-11-24T10:38:36;11.00;85.80
1347;DHT22;667;48.796;9.480;2022-11-24T10:41:18;11.10;86.10
1347;DHT22;667;48.796;9.480;2022-11-24T10:43:46;11.10;86.30
1347;DHT22;667;48.796;9.480;2022-11-24T10:46:27;11.30;86.70
1347;DHT22;667;48.796;9.480;2022-11-24T10:48:59;11.40;86.50
1347;DHT22;667;48.796;9.480;2022-11-24T10:54:19;11.50;86.00
1347;DHT22;667;48.796;9.480;2022-11-24T10:56:46;11.50;85.70
1347;DHT22;667;48.796;9.480;2022-11-24T11:01:53;11.50;85.40
1347;DHT22;667;48.796;9.480;2022-11-24T11:04:21;11.50;85.90
1347;DHT22;667;48.796;9.480;2022-11-24T11:06:49;11.70;86.30
1347;DHT22;667;48.796;9.480;2022-11-24T11:09:18;11.80;85.90
1347;DHT22;667;48.796;9.480;2022-11-24T11:11:44;11.90;85.50
1347;DHT22;667;48.796;9.480;2022-11-24T11:14:31;12.00;84.80
1347;DHT22;667;48.796;9.480;2022-11-24T11:16:57;12.10;83.70
1347;DHT22;667;48.796;9.480;2022-11-24T11:19:37;12.20;82.60
1347;DHT22;667;48.796;9.480;2022-11-24T11:25:01;12.30;81.50
1347;DHT22;667;48.796;9.480;2022-11-24T11:27:27;12.40;81.00
1347;DHT22;667;48.796;9.480;2022-11-24T11:29:53;12.40;80.10
1347;DHT22;667;48.796;9.480;2022-11-24T11:32:24;12.40;79.60
1347;DHT22;667;48.796;9.480;2022-11-24T11:34:53;12.30;78.60
1347;DHT22;667;48.796;9.480;2022-11-24T11:37:21;12.30;78.40
1347;DHT22;667;48.796;9.480;2022-11-24T11:39:50;12.20;78.40
1347;DHT22;667;48.796;9.480;2022-11-24T11:47:34;12.00;80.10
1347;DHT22;667;48.796;9.480;2022-11-24T11:50:09;12.00;80.30
1347;DHT22;667;48.796;9.480;2022-11-24T12:00:44;12.20;80.10
1347;DHT22;667;48.796;9.480;2022-11-24T12:03:37;12.20;80.00
1347;DHT22;667;48.796;9.480;2022-11-24T12:14:45;12.30;79.40
1347;DHT22;667;48.796;9.480;2022-11-24T12:20:21;12.40;79.70
1347;DHT22;667;48.796;9.480;2022-11-24T12:23:00;12.40;79.60
1347;DHT22;667;48.796;9.480;2022-11-24T12:25:53;12.40;79.40
1347;DHT22;667;48.796;9.480;2022-11-24T12:31:05;12.60;77.50
1347;DHT22;667;48.796;9.480;2022-11-24T12:33:58;12.60;77.20
1347;DHT22;667;48.796;9.480;2022-11-24T12:39:34;12.60;77.40
1347;DHT22;667;48.796;9.480;2022-11-24T12:42:07;12.70;77.70
1347;DHT22;667;48.796;9.480;2022-11-24T12:47:44;12.80;77.10
1347;DHT22;667;48.796;9.480;2022-11-24T12:50:17;12.80;77.00
1347;DHT22;667;48.796;9.480;2022-11-24T12:52:52;12.80;76.80
1347;DHT22;667;48.796;9.480;2022-11-24T12:55:21;12.70;76.00
1347;DHT22;667;48.796;9.480;2022-11-24T13:00:34;12.70;75.80
1347;DHT22;667;48.796;9.480;2022-11-24T13:06:12;12.60;76.50
1347;DHT22;667;48.796;9.480;2022-11-24T13:08:39;12.50;76.50
1347;DHT22;667;48.796;9.480;2022-11-24T13:13:59;12.50;76.70
1347;DHT22;667;48.796;9.480;2022-11-24T13:16:25;12.50;76.80
1347;DHT22;667;48.796;9.480;2022-11-24T13:18:57;12.50;76.80
1347;DHT22;667;48.796;9.480;2022-11-24T13:24:04;12.50;76.90
1347;DHT22;667;48.796;9.480;2022-11-24T13:26:46;12.50;77.10
1347;DHT22;667;48.796;9.480;2022-11-24T13:45:47;12.70;74.60
1347;DHT22;667;48.796;9.480;2022-11-24T13:53:14;12.70;73.30
1347;DHT22;667;48.796;9.480;2022-11-24T13:56:02;12.70;72.90
1347;DHT22;667;48.796;9.480;2022-11-24T13:58:38;12.70;72.30
1347;DHT22;667;48.796;9.480;2022-11-24T14:03:33;12.70;71.30
1347;DHT22;667;48.796;9.480;2022-11-24T14:06:01;12.70;70.80
1347;DHT22;667;48.796;9.480;2022-11-24T14:08:30;12.60;70.30
1347;DHT22;667;48.796;9.480;2022-11-24T14:10:58;12.60;69.70
1347;DHT22;667;48.796;9.480;2022-11-24T14:13:28;12.60;69.50
1347;DHT22;667;48.796;9.480;2022-11-24T14:16:13;12.60;69.10
1347;DHT22;667;48.796;9.480;2022-11-24T14:18:42;12.60;69.10
1347;DHT22;667;48.796;9.480;2022-11-24T14:21:23;12.60;69.20
1347;DHT22;667;48.796;9.480;2022-11-24T14:24:11;12.60;69.20
1347;DHT22;667;48.796;9.480;2022-11-24T14:26:40;12.50;69.20
1347;DHT22;667;48.796;9.480;2022-11-24T14:29:32;12.50;69.00
1347;DHT22;667;48.796;9.480;2022-11-24T14:32:02;12.60;68.60
1347;DHT22;667;48.796;9.480;2022-11-24T14:34:31;12.50;68.60
1347;DHT22;667;48.796;9.480;2022-11-24T14:36:59;12.50;68.70
1347;DHT22;667;48.796;9.480;2022-11-24T14:39:26;12.50;68.90
1347;DHT22;667;48.796;9.480;2022-11-24T14:42:03;12.50;69.50
1347;DHT22;667;48.796;9.480;2022-11-24T14:47:28;12.50;71.00
1347;DHT22;667;48.796;9.480;2022-11-24T14:49:55;12.50;71.50
1347;DHT22;667;48.796;9.480;2022-11-24T14:52:22;12.50;72.10
1347;DHT22;667;48.796;9.480;2022-11-24T14:54:58;12.60;76.90
1347;DHT22;667;48.796;9.480;2022-11-24T14:57:36;12.50;72.20
1347;DHT22;667;48.796;9.480;2022-11-24T15:02:46;12.50;72.20
1347;DHT22;667;48.796;9.480;2022-11-24T15:05:15;12.50;72.50
1347;DHT22;667;48.796;9.480;2022-11-24T15:07:42;12.50;73.10
1347;DHT22;667;48.796;9.480;2022-11-24T15:12:58;12.50;74.20
1347;DHT22;667;48.796;9.480;2022-11-24T15:15:35;12.40;74.80
1347;DHT22;667;48.796;9.480;2022-11-24T15:18:02;12.40;74.90
1347;DHT22;667;48.796;9.480;2022-11-24T15:20:29;12.40;74.50
1347;DHT22;667;48.796;9.480;2022-11-24T15:28:19;12.30;75.00
1347;DHT22;667;48.796;9.480;2022-11-24T15:30:53;12.40;75.80
1347;DHT22;667;48.796;9.480;2022-11-24T15:33:20;12.30;76.40
1347;DHT22;667;48.796;9.480;2022-11-24T15:38:16;12.30;77.50
1347;DHT22;667;48.796;9.480;2022-11-24T15:40:47;12.20;77.70
1347;DHT22;667;48.796;9.480;2022-11-24T15:43:38;12.20;77.80
1347;DHT22;667;48.796;9.480;2022-11-24T15:46:04;12.20;77.80
1347;DHT22;667;48.796;9.480;2022-11-24T15:48:30;12.10;77.60
1347;DHT22;667;48.796;9.480;2022-11-24T15:50:57;12.10;77.70
1347;DHT22;667;48.796;9.480;2022-11-24T15:53:24;12.10;77.80
1347;DHT22;667;48.796;9.480;2022-11-24T15:55:52;12.10;78.70
1347;DHT22;667;48.796;9.480;2022-11-24T15:58:20;12.00;78.10
1347;DHT22;667;48.796;9.480;2022-11-24T16:00:46;12.00;78.20
1347;DHT22;667;48.796;9.480;2022-11-24T16:03:11;12.00;77.60
1347;DHT22;667;48.796;9.480;2022-11-24T16:05:37;12.00;77.60
1347;DHT22;667;48.796;9.480;2022-11-24T16:08:14;11.90;78.00
1347;DHT22;667;48.796;9.480;2022-11-24T16:10:40;11.90;77.80
1347;DHT22;667;48.796;9.480;2022-11-24T16:13:06;12.00;76.20
1347;DHT22;667;48.796;9.480;2022-11-24T16:15:32;12.00;76.30
1347;DHT22;667;48.796;9.480;2022-11-24T16:17:57;11.90;75.10
1347;DHT22;667;48.796;9.480;2022-11-24T16:20:23;11.90;74.70
1347;DHT22;667;48.796;9.480;2022-11-24T16:22:49;11.90;74.80
1347;DHT22;667;48.796;9.480;2022-11-24T16:25:14;11.90;75.40
1347;DHT22;667;48.796;9.480;2022-11-24T16:27:40;11.90;75.90
1347;DHT22;667;48.796;9.480;2022-11-24T16:30:07;11.90;76.50
1347;DHT22;667;48.796;9.480;2022-11-24T16:32:33;11.90;77.00
1347;DHT22;667;48.796;9.480;2022-11-24T16:34:59;11.90;77.30
1347;DHT22;667;48.796;9.480;2022-11-24T16:37:25;11.80;77.40
1347;DHT22;667;48.796;9.480;2022-11-24T16:39:50;11.80;77.60
1347;DHT22;667;48.796;9.480;2022-11-24T16:42:16;11.80;77.80
1347;DHT22;667;48.796;9.480;2022-11-24T16:44:41;11.80;78.10
1347;DHT22;667;48.796;9.480;2022-11-24T16:47:07;11.70;78.80
1347;DHT22;667;48.796;9.480;2022-11-24T16:49:33;11.70;78.40
1347;DHT22;667;48.796;9.480;2022-11-24T16:51:59;11.70;78.40
1347;DHT22;667;48.796;9.480;2022-11-24T16:54:24;11.70;78.40
1347;DHT22;667;48.796;9.480;2022-11-24T16:56:50;11.60;78.20
1347;DHT22;667;48.796;9.480;2022-11-24T16:59:16;11.60;78.20
1347;DHT22;667;48.796;9.480;2022-11-24T17:01:42;11.60;78.10
1347;DHT22;667;48.796;9.480;2022-11-24T17:04:11;11.60;78.10
1347;DHT22;667;48.796;9.480;2022-11-24T17:06:36;11.50;78.00
1347;DHT22;667;48.796;9.480;2022-11-24T17:09:02;11.50;78.00
1347;DHT22;667;48.796;9.480;2022-11-24T17:11:28;11.50;77.90
1347;DHT22;667;48.796;9.480;2022-11-24T17:13:56;11.50;77.90
1347;DHT22;667;48.796;9.480;2022-11-24T17:16:23;11.50;77.90
1347;DHT22;667;48.796;9.480;2022-11-24T17:18:49;11.40;77.80
1347;DHT22;667;48.796;9.480;2022-11-24T17:21:22;11.40;77.80
1347;DHT22;667;48.796;9.480;2022-11-24T17:23:55;11.40;77.90
1347;DHT22;667;48.796;9.480;2022-11-24T17:26:22;11.30;77.80
1347;DHT22;667;48.796;9.480;2022-11-24T17:28:47;11.30;77.90
1347;DHT22;667;48.796;9.480;2022-11-24T17:33:48;11.20;77.70
1347;DHT22;667;48.796;9.480;2022-11-24T17:36:14;11.20;77.60
1347;DHT22;667;48.796;9.480;2022-11-24T17:38:40;11.10;77.40
1347;DHT22;667;48.796;9.480;2022-11-24T17:41:06;11.10;77.60
1347;DHT22;667;48.796;9.480;2022-11-24T17:43:31;11.10;77.90
1347;DHT22;667;48.796;9.480;2022-11-24T17:45:59;11.00;77.90
1347;DHT22;667;48.796;9.480;2022-11-24T17:48:26;11.00;78.00
1347;DHT22;667;48.796;9.480;2022-11-24T17:51:06;10.90;77.50
1347;DHT22;667;48.796;9.480;2022-11-24T17:53:34;10.80;77.00
1347;DHT22;667;48.796;9.480;2022-11-24T17:56:01;10.70;76.80
1347;DHT22;667;48.796;9.480;2022-11-24T17:58:27;10.60;76.70
1347;DHT22;667;48.796;9.480;2022-11-24T18:00:53;10.60;76.90
1347;DHT22;667;48.796;9.480;2022-11-24T18:03:19;10.60;76.90
1347;DHT22;667;48.796;9.480;2022-11-24T18:05:44;10.50;76.80
1347;DHT22;667;48.796;9.480;2022-11-24T18:08:10;10.50;76.80
1347;DHT22;667;48.796;9.480;2022-11-24T18:10:39;10.40;76.80
1347;DHT22;667;48.796;9.480;2022-11-24T18:13:04;10.40;76.90
1347;DHT22;667;48.796;9.480;2022-11-24T18:15:34;10.30;76.80
1347;DHT22;667;48.796;9.480;2022-11-24T18:18:00;10.20;76.70
1347;DHT22;667;48.796;9.480;2022-11-24T18:20:26;10.20;76.90
1347;DHT22;667;48.796;9.480;2022-11-24T18:22:54;10.10;76.80
1347;DHT22;667;48.796;9.480;2022-11-24T18:25:19;10.10;77.00
1347;DHT22;667;48.796;9.480;2022-11-24T18:27:45;10.00;76.90
1347;DHT22;667;48.796;9.480;2022-11-24T18:30:11;10.00;76.90
1347;DHT22;667;48.796;9.480;2022-11-24T18:32:37;9.90;78.10
1347;DHT22;667;48.796;9.480;2022-11-24T18:35:02;9.90;78.10
1347;DHT22;667;48.796;9.480;2022-11-24T18:37:28;9.80;78.10